Time;durP1;ratioP1;P1;durP2;ratioP2;P2;SDS_P1;SDS_P2;PMS_P1;PMS_P2;Temp;Humidity;BMP_temperature;BMP_pressure;BME280_temperature;BME280_humidity;BME280_pressure;Samples;Min_cycle;Max_cycle;Signal;HPM_P1;HPM_P2
2022/01/24 00:00:06;;;;;;;9.00;8.07;;;;;;;0.40;85.00;98061.22;5074043;28;20219;-67
2022/01/24 00:02:33;;;;;;;10.27;8.63;;;;;;;0.46;84.68;98068.84;5074184;28;20205;-67
2022/01/24 00:05:00;;;;;;;11.97;9.10;;;;;;;0.45;84.48;98067.16;5074166;28;20219;-66
2022/01/24 00:07:27;;;;;;;10.03;8.93;;;;;;;0.46;84.66;98068.00;5046986;28;20230;-68
2022/01/24 00:09:57;;;;;;;9.97;8.37;;;;;;;0.36;85.21;98062.22;5074007;28;20208;-68
2022/01/24 00:12:31;;;;;;;10.60;8.83;;;;;;;0.40;85.61;98065.56;5054796;28;20210;-68
2022/01/24 00:15:07;;;;;;;9.30;8.37;;;;;;;0.44;85.79;98072.38;5053465;28;20332;-68
2022/01/24 00:17:36;;;;;;;10.67;8.63;;;;;;;0.52;85.39;98065.22;5059496;28;20201;-68
2022/01/24 00:28:19;;;;;;;11.97;10.17;;;;;;;0.74;86.90;98053.22;5050565;28;20657;-67
2022/01/24 00:30:49;;;;;;;12.33;9.53;;;;;;;0.81;86.89;98049.53;5065752;28;20234;-67
2022/01/24 00:33:18;;;;;;;11.10;9.60;;;;;;;0.87;86.58;98054.53;5071316;28;20211;-68
2022/01/24 00:35:46;;;;;;;13.20;11.00;;;;;;;0.97;86.40;98050.72;5076733;28;20228;-68
2022/01/24 00:38:12;;;;;;;13.77;11.03;;;;;;;1.06;86.75;98054.78;5062643;28;20224;-68
2022/01/24 00:40:41;;;;;;;13.63;11.03;;;;;;;1.14;87.13;98057.13;5057841;28;20200;-66
2022/01/24 00:43:18;;;;;;;12.97;10.47;;;;;;;1.19;87.30;98052.63;5073280;28;20209;-66
2022/01/24 00:45:56;;;;;;;11.67;10.33;;;;;;;1.28;87.29;98054.91;5079497;28;20701;-68
2022/01/24 00:48:36;;;;;;;14.23;11.73;;;;;;;1.33;87.25;98056.47;5060093;28;20608;-68
2022/01/24 00:54:01;;;;;;;15.97;12.47;;;;;;;1.44;87.42;98046.53;5057582;28;20541;-68
2022/01/24 00:56:28;;;;;;;15.17;12.47;;;;;;;1.50;87.27;98040.22;5057313;28;20531;-68
2022/01/24 00:58:55;;;;;;;14.67;12.17;;;;;;;1.57;87.06;98041.72;5057206;28;20209;-67
2022/01/24 01:01:21;;;;;;;13.23;11.60;;;;;;;1.62;86.95;98033.75;5057497;28;20213;-68
2022/01/24 01:03:48;;;;;;;15.10;12.30;;;;;;;1.65;86.76;98031.88;5057066;28;20223;-68
2022/01/24 01:06:17;;;;;;;17.40;12.97;;;;;;;1.71;86.35;98023.81;5057878;28;20618;-67
2022/01/24 01:19:41;;;;;;;16.07;12.73;;;;;;;1.88;86.43;98026.66;5057634;28;20209;-67
2022/01/24 01:22:09;;;;;;;15.67;12.20;;;;;;;1.92;86.11;98023.03;5058250;28;20245;-67
2022/01/24 01:24:40;;;;;;;13.47;11.80;;;;;;;1.91;86.17;98018.72;5058562;28;20214;-67
2022/01/24 01:27:15;;;;;;;15.13;12.20;;;;;;;1.91;86.21;98020.50;5059221;28;20246;-68
2022/01/24 01:29:51;;;;;;;15.60;12.43;;;;;;;1.87;85.67;98026.75;5062171;28;20206;-68
2022/01/24 01:32:29;;;;;;;13.57;12.07;;;;;;;1.93;85.66;98027.34;5063490;28;20652;-67
2022/01/24 01:35:14;;;;;;;14.90;12.13;;;;;;;1.95;85.79;98033.34;5064730;28;20208;-68
2022/01/24 01:38:04;;;;;;;13.60;11.60;;;;;;;1.96;85.65;98036.81;5067516;28;20192;-69
2022/01/24 01:54:47;;;;;;;13.00;11.50;;;;;;;2.02;86.05;98033.16;5065611;28;20214;-67
2022/01/24 01:57:14;;;;;;;15.07;12.57;;;;;;;2.02;85.65;98033.97;5058550;28;20221;-67
2022/01/24 01:59:41;;;;;;;13.27;11.90;;;;;;;2.07;84.56;98026.84;5057920;28;20244;-67
2022/01/24 02:02:08;;;;;;;14.30;11.87;;;;;;;2.08;84.96;98022.47;5057516;28;20221;-68
2022/01/24 02:04:34;;;;;;;13.10;11.23;;;;;;;2.13;84.97;98024.00;5056881;28;20213;-67
2022/01/24 02:07:02;;;;;;;13.73;11.83;;;;;;;2.14;84.76;98027.47;5057022;28;20205;-68
2022/01/24 02:09:32;;;;;;;13.90;11.57;;;;;;;2.10;84.47;98015.44;5056832;28;20210;-67
2022/01/24 02:11:58;;;;;;;15.23;11.83;;;;;;;2.05;85.26;98015.63;5069534;28;20524;-67
2022/01/24 02:14:31;;;;;;;15.30;12.73;;;;;;;2.12;85.01;98009.28;5076183;28;20238;-67
2022/01/24 02:17:02;;;;;;;13.17;11.63;;;;;;;2.12;84.94;98008.41;5076129;28;20210;-67
2022/01/24 02:19:36;;;;;;;13.63;11.97;;;;;;;2.18;84.36;98016.00;5044049;28;20634;-67
2022/01/24 02:22:38;;;;;;;13.57;11.70;;;;;;;2.10;83.98;98007.59;5072039;28;20209;-68
2022/01/24 02:24:58;;;;;;;14.07;12.40;;;;;;;2.17;83.86;98009.06;5076650;28;20292;-67
2022/01/24 02:27:27;;;;;;;13.20;11.03;;;;;;;2.16;84.16;97999.56;5076521;28;20229;-67
2022/01/24 02:30:08;;;;;;;13.47;11.47;;;;;;;2.18;83.87;98008.16;5076269;28;20275;-68
2022/01/24 02:32:37;;;;;;;14.83;12.07;;;;;;;2.16;84.90;98004.78;5076199;28;20610;-69
2022/01/24 02:35:04;;;;;;;11.93;10.33;;;;;;;2.08;84.95;98017.25;5075771;28;20614;-67
2022/01/24 02:37:32;;;;;;;13.93;11.80;;;;;;;2.09;84.08;98013.75;5075966;28;20224;-68
2022/01/24 02:40:02;;;;;;;13.77;11.13;;;;;;;2.07;84.21;98010.34;5068700;28;20207;-68
2022/01/24 02:51:04;;;;;;;12.93;11.50;;;;;;;2.06;84.31;98013.84;5055603;28;20226;-67
2022/01/24 02:53:33;;;;;;;14.87;12.40;;;;;;;2.07;83.74;98010.34;5075330;28;20212;-68
2022/01/24 02:56:00;;;;;;;14.17;12.27;;;;;;;2.09;83.71;98005.94;5076023;28;20206;-67
2022/01/24 02:58:27;;;;;;;14.97;12.30;;;;;;;2.08;84.30;98005.06;5074909;28;20206;-68
2022/01/24 03:00:54;;;;;;;13.97;12.23;;;;;;;2.09;84.12;98005.94;5075448;28;20231;-68
2022/01/24 03:03:21;;;;;;;15.10;11.50;;;;;;;2.16;83.60;97995.16;5075832;28;20221;-67
2022/01/24 03:05:47;;;;;;;15.00;12.20;;;;;;;2.07;84.72;98002.50;5071330;28;20213;-68
2022/01/24 03:08:14;;;;;;;12.97;11.63;;;;;;;2.08;84.99;98006.81;5053042;28;20665;-67
2022/01/24 03:10:45;;;;;;;14.17;12.53;;;;;;;2.14;84.37;98003.97;5070090;28;20224;-67
2022/01/24 03:13:20;;;;;;;13.37;11.83;;;;;;;2.18;84.27;97997.72;5055748;28;20264;-68
2022/01/24 03:15:48;;;;;;;15.20;13.17;;;;;;;2.22;84.01;97999.31;5055594;28;20203;-68
2022/01/24 03:18:16;;;;;;;18.83;14.17;;;;;;;2.22;83.36;97994.09;5055265;28;20209;-68
2022/01/24 03:20:43;;;;;;;16.27;14.13;;;;;;;2.14;83.86;97990.94;5055176;28;20210;-68
2022/01/24 03:23:10;;;;;;;17.60;13.87;;;;;;;2.17;83.86;97993.41;5055811;28;20220;-68
2022/01/24 03:25:37;;;;;;;16.20;13.83;;;;;;;2.13;84.53;97990.06;5075128;28;20209;-67
2022/01/24 03:28:05;;;;;;;14.73;13.10;;;;;;;2.13;85.02;97995.28;5076506;28;20698;-67
2022/01/24 03:30:32;;;;;;;17.10;14.37;;;;;;;2.19;84.36;97989.00;5076449;28;20499;-68
2022/01/24 03:32:58;;;;;;;16.90;14.83;;;;;;;2.18;83.76;97982.06;5076360;28;20621;-68
2022/01/24 03:35:25;;;;;;;17.40;14.87;;;;;;;2.11;84.55;97986.69;5059052;28;20220;-68
2022/01/24 03:37:51;;;;;;;16.33;13.60;;;;;;;2.17;84.12;97996.03;5058919;28;20217;-68
2022/01/24 03:40:17;;;;;;;17.93;14.73;;;;;;;2.13;84.52;97994.44;5067324;28;20222;-68
2022/01/24 03:42:44;;;;;;;19.57;13.83;;;;;;;2.08;84.21;97994.63;5054893;28;20221;-67
2022/01/24 03:45:12;;;;;;;16.57;13.60;;;;;;;2.07;84.34;98000.75;5059284;28;20214;-68
2022/01/24 03:47:55;;;;;;;16.30;13.70;;;;;;;2.12;84.25;98004.03;5055922;28;20638;-67
2022/01/24 03:50:21;;;;;;;16.67;13.77;;;;;;;2.11;84.27;97991.03;5055607;28;20217;-67
2022/01/24 03:52:48;;;;;;;16.30;14.27;;;;;;;2.11;84.41;97985.81;5055291;28;20217;-68
2022/01/24 03:55:14;;;;;;;17.30;14.07;;;;;;;2.11;84.39;97991.03;5055336;28;20207;-68
2022/01/24 03:57:41;;;;;;;15.50;13.80;;;;;;;2.12;83.70;97982.31;5055482;28;20214;-67
2022/01/24 04:00:09;;;;;;;17.53;14.10;;;;;;;2.13;84.32;97979.63;5054809;28;20221;-67
2022/01/24 04:02:37;;;;;;;19.23;15.07;;;;;;;2.11;83.83;97983.22;5055318;28;20226;-68
2022/01/24 04:05:04;;;;;;;16.23;13.60;;;;;;;2.06;84.11;97983.38;5055315;28;20221;-68
2022/01/24 04:07:31;;;;;;;16.97;14.30;;;;;;;2.12;84.50;97987.53;5055429;28;20301;-68
2022/01/24 04:10:03;;;;;;;17.00;14.43;;;;;;;2.13;84.37;97984.00;5058338;28;20213;-68
2022/01/24 04:12:29;;;;;;;17.73;13.90;;;;;;;2.14;83.98;97983.94;5057921;28;20301;-68
2022/01/24 04:15:09;;;;;;;17.77;14.17;;;;;;;2.17;83.63;97988.19;5060370;28;20700;-68
2022/01/24 04:17:41;;;;;;;16.73;13.63;;;;;;;2.17;83.94;97977.75;5060284;28;20268;-67
2022/01/24 04:22:55;;;;;;;16.30;14.50;;;;;;;2.19;83.68;97994.22;5060347;28;20213;-67
2022/01/24 04:25:23;;;;;;;17.57;14.10;;;;;;;2.20;84.07;97990.69;5061475;28;20240;-66
2022/01/24 04:27:50;;;;;;;15.63;13.23;;;;;;;2.24;83.69;97997.47;5078637;28;20528;-67
2022/01/24 04:30:16;;;;;;;17.23;14.00;;;;;;;2.24;83.74;97987.03;5078396;28;20251;-68
2022/01/24 04:32:44;;;;;;;16.67;13.77;;;;;;;2.23;83.28;97985.38;5078902;28;20533;-68
2022/01/24 04:35:11;;;;;;;15.73;14.03;;;;;;;2.26;83.41;97985.25;5078468;28;20206;-68
2022/01/24 04:37:37;;;;;;;17.93;13.53;;;;;;;2.24;83.17;97982.69;5078291;28;20236;-68
2022/01/24 04:40:05;;;;;;;15.33;13.70;;;;;;;2.24;83.46;97984.44;5069705;28;20210;-67
2022/01/24 04:42:40;;;;;;;15.57;13.40;;;;;;;2.22;83.41;97978.44;5078141;28;20207;-67
2022/01/24 04:51:04;;;;;;;17.33;14.57;;;;;;;2.34;82.44;97977.94;5073293;28;20215;-67
2022/01/24 04:53:53;;;;;;;18.27;14.67;;;;;;;2.30;82.66;97989.44;5077901;28;20202;-67
2022/01/24 04:56:20;;;;;;;17.97;14.90;;;;;;;2.23;83.08;97985.38;5078230;28;20218;-67
2022/01/24 04:58:46;;;;;;;17.63;14.80;;;;;;;2.24;83.15;97987.91;5078031;28;20335;-68
2022/01/24 05:01:13;;;;;;;18.60;14.70;;;;;;;2.22;83.03;97984.50;5078625;28;20525;-68
2022/01/24 05:03:41;;;;;;;17.83;14.47;;;;;;;2.22;82.52;97983.66;5077853;28;20205;-68
2022/01/24 05:06:07;;;;;;;17.27;14.60;;;;;;;2.18;83.42;97995.13;5060434;28;20203;-68
2022/01/24 05:08:34;;;;;;;16.13;13.60;;;;;;;2.18;83.22;97997.72;5057754;28;20234;-67
2022/01/24 05:11:05;;;;;;;15.97;14.27;;;;;;;2.16;83.80;97994.34;5058156;28;20225;-68
2022/01/24 05:24:38;;;;;;;16.30;13.80;;;;;;;2.18;83.59;97990.75;5002061;28;20243;-67
2022/01/24 05:27:05;;;;;;;18.90;14.40;;;;;;;2.17;83.58;97999.50;5058191;28;20217;-68
2022/01/24 05:29:31;;;;;;;18.57;15.10;;;;;;;2.23;83.19;98001.03;5058493;28;20230;-66
2022/01/24 05:31:58;;;;;;;18.47;14.83;;;;;;;2.18;82.78;97995.13;5057912;28;20202;-67
2022/01/24 05:34:26;;;;;;;18.07;14.90;;;;;;;2.10;83.15;97999.78;5073173;28;20194;-68
2022/01/24 05:36:52;;;;;;;16.30;14.57;;;;;;;2.11;83.75;97991.91;5074747;28;20211;-68
2022/01/24 05:39:18;;;;;;;17.67;14.97;;;;;;;2.19;83.54;97999.44;5064998;28;20267;-67
2022/01/24 05:41:45;;;;;;;17.07;14.23;;;;;;;2.21;82.80;97992.38;5058820;28;20218;-67
2022/01/24 05:44:12;;;;;;;18.07;14.87;;;;;;;2.14;83.13;98001.38;5068610;28;20530;-67
2022/01/24 05:46:38;;;;;;;19.50;15.57;;;;;;;2.11;83.10;98001.47;5077880;28;20213;-68
2022/01/24 05:49:05;;;;;;;19.20;15.57;;;;;;;2.06;83.09;97998.19;5078050;28;20245;-67
2022/01/24 05:51:33;;;;;;;18.37;16.20;;;;;;;2.09;83.09;97998.09;5078040;28;20286;-66
2022/01/24 05:54:00;;;;;;;19.40;15.87;;;;;;;2.00;83.51;98000.13;5078215;28;20217;-67
2022/01/24 05:56:26;;;;;;;18.07;15.83;;;;;;;2.04;83.64;98000.00;5077065;28;20209;-68
2022/01/24 05:58:53;;;;;;;20.27;16.10;;;;;;;2.04;83.90;98010.44;5066625;28;20225;-67
2022/01/24 06:01:19;;;;;;;19.00;16.03;;;;;;;2.07;83.33;98008.56;5057330;28;20225;-68
2022/01/24 06:03:45;;;;;;;18.77;16.07;;;;;;;2.10;83.29;98010.22;5057512;28;20213;-67
2022/01/24 06:06:12;;;;;;;20.97;16.27;;;;;;;2.07;83.72;98008.56;5057478;28;20199;-67
2022/01/24 06:08:40;;;;;;;16.73;14.03;;;;;;;2.13;83.20;98015.31;5057065;28;20252;-68
2022/01/24 06:11:06;;;;;;;18.37;15.70;;;;;;;2.08;83.66;98015.50;5062868;28;20209;-67
2022/01/24 06:13:33;;;;;;;18.43;16.13;;;;;;;1.99;82.98;98015.84;5076337;28;20542;-66
2022/01/24 06:15:59;;;;;;;20.80;16.17;;;;;;;1.98;83.43;98014.97;5077223;28;20201;-67
2022/01/24 06:18:26;;;;;;;18.40;16.27;;;;;;;2.03;83.49;98024.41;5076781;28;20221;-68
2022/01/24 06:20:53;;;;;;;18.87;15.33;;;;;;;2.04;83.40;98020.88;5077304;28;20286;-67
2022/01/24 06:23:20;;;;;;;18.07;15.37;;;;;;;1.92;82.90;98017.81;5077056;28;20256;-68
2022/01/24 06:25:47;;;;;;;18.33;15.93;;;;;;;1.92;84.42;98023.03;5077896;28;20210;-68
2022/01/24 06:28:14;;;;;;;20.20;15.87;;;;;;;1.94;84.02;98029.06;5076434;28;20288;-68
2022/01/24 06:30:40;;;;;;;18.40;15.43;;;;;;;2.01;83.53;98021.88;5076997;28;20210;-67
2022/01/24 06:33:07;;;;;;;19.83;15.73;;;;;;;2.11;83.02;98027.56;5075614;28;20207;-67
2022/01/24 06:35:33;;;;;;;18.63;15.97;;;;;;;1.98;82.36;98022.81;5069276;28;20211;-67
2022/01/24 06:38:00;;;;;;;18.07;15.97;;;;;;;1.91;82.69;98023.94;5056657;28;20206;-67
2022/01/24 06:40:26;;;;;;;19.03;16.07;;;;;;;1.92;82.94;98028.25;5061133;28;20201;-67
2022/01/24 06:42:54;;;;;;;19.10;16.50;;;;;;;1.90;83.84;98030.09;5056603;28;20637;-67
2022/01/24 06:45:20;;;;;;;20.87;16.87;;;;;;;1.91;83.55;98036.16;5057226;28;20207;-67
2022/01/24 06:47:47;;;;;;;18.63;16.63;;;;;;;1.92;83.52;98043.91;5056227;28;20233;-65
2022/01/24 06:50:14;;;;;;;20.80;16.40;;;;;;;1.96;83.36;98045.50;5056288;28;20239;-68
2022/01/24 06:52:40;;;;;;;19.10;16.37;;;;;;;2.02;83.38;98049.63;5056903;28;20210;-67
2022/01/24 06:55:07;;;;;;;19.10;15.53;;;;;;;2.02;83.38;98051.41;5055657;28;20629;-68
2022/01/24 06:57:34;;;;;;;19.57;16.77;;;;;;;1.97;82.95;98057.66;5056541;28;20214;-67
2022/01/24 07:00:02;;;;;;;22.57;17.57;;;;;;;1.98;83.02;98054.09;5068851;28;20676;-67
2022/01/24 07:02:28;;;;;;;20.63;17.17;;;;;;;2.06;82.75;98055.59;5056156;28;20217;-67
2022/01/24 07:04:54;;;;;;;20.03;17.13;;;;;;;2.07;82.59;98055.53;5055930;28;20229;-68
2022/01/24 07:07:21;;;;;;;19.10;16.20;;;;;;;2.08;82.74;98067.69;5056276;28;20247;-67
2022/01/24 07:09:47;;;;;;;21.10;16.27;;;;;;;2.16;82.65;98067.41;5055513;28;20677;-68
2022/01/24 07:12:14;;;;;;;19.80;16.80;;;;;;;2.14;82.42;98074.44;5070329;28;20206;-68
2022/01/24 07:14:42;;;;;;;19.47;17.37;;;;;;;2.15;82.44;98076.13;5075260;28;20251;-67
2022/01/24 07:17:16;;;;;;;18.27;15.80;;;;;;;2.08;82.43;98074.66;5081377;28;20239;-68
2022/01/24 07:19:43;;;;;;;18.77;16.53;;;;;;;2.15;82.04;98070.91;5083964;28;20202;-68
2022/01/24 07:22:09;;;;;;;21.37;16.43;;;;;;;2.12;81.72;98081.47;5070611;28;20224;-68
2022/01/24 07:24:36;;;;;;;20.50;17.63;;;;;;;2.01;83.08;98081.88;5078536;28;20308;-69
2022/01/24 07:27:04;;;;;;;21.30;16.80;;;;;;;2.04;82.45;98079.16;5076409;28;20210;-67
2022/01/24 07:29:31;;;;;;;20.27;16.47;;;;;;;2.08;82.27;98079.88;5075563;28;20695;-67
2022/01/24 07:31:58;;;;;;;19.93;16.07;;;;;;;2.11;82.49;98091.06;5076440;28;20524;-67
2022/01/24 07:34:26;;;;;;;18.57;16.40;;;;;;;2.13;82.44;98088.38;5065257;28;20657;-67
2022/01/24 07:36:52;;;;;;;20.53;16.57;;;;;;;2.14;82.63;98085.72;5055854;28;20200;-67
2022/01/24 07:39:19;;;;;;;19.23;16.00;;;;;;;2.21;82.38;98091.56;5060523;28;20197;-67
2022/01/24 07:41:47;;;;;;;19.53;16.73;;;;;;;2.22;82.19;98093.28;5055895;28;20293;-68
2022/01/24 07:44:14;;;;;;;20.27;16.83;;;;;;;2.21;82.22;98092.41;5057830;28;20537;-67
2022/01/24 07:46:41;;;;;;;20.73;17.47;;;;;;;2.21;82.18;98096.78;5059646;28;20650;-68
2022/01/24 07:49:10;;;;;;;23.63;18.20;;;;;;;2.17;82.49;98105.63;5060073;28;20241;-67
2022/01/24 07:51:39;;;;;;;21.67;17.50;;;;;;;2.19;81.65;98101.22;5059464;28;20222;-67
2022/01/24 07:54:05;;;;;;;21.27;17.40;;;;;;;2.20;81.97;98105.50;5059250;28;20214;-68
2022/01/24 07:56:32;;;;;;;22.93;17.53;;;;;;;2.14;82.06;98105.75;5059212;28;20232;-68
2022/01/24 07:58:59;;;;;;;22.23;16.80;;;;;;;2.09;83.14;98102.47;5059465;28;20206;-67
2022/01/24 08:01:26;;;;;;;21.73;17.87;;;;;;;2.12;82.90;98099.75;5058789;28;20235;-66
2022/01/24 08:03:53;;;;;;;22.77;18.23;;;;;;;2.13;82.64;98101.41;5059247;28;20206;-67
2022/01/24 08:06:19;;;;;;;21.60;17.63;;;;;;;2.14;82.30;98110.97;5059501;28;20217;-67
2022/01/24 08:08:47;;;;;;;19.50;17.33;;;;;;;2.16;82.03;98106.56;5059195;28;20242;-67
2022/01/24 08:11:15;;;;;;;19.33;16.50;;;;;;;2.15;81.81;98104.84;5055684;28;20210;-68
2022/01/24 08:13:42;;;;;;;21.43;17.80;;;;;;;2.17;82.53;98110.84;5078870;28;20249;-68
2022/01/24 08:16:08;;;;;;;19.60;16.77;;;;;;;2.26;82.00;98108.78;5071738;28;20239;-67
2022/01/24 08:18:35;;;;;;;22.93;17.53;;;;;;;2.28;81.58;98109.56;5059168;28;20661;-66
2022/01/24 08:21:01;;;;;;;20.40;17.03;;;;;;;2.28;81.55;98108.69;5058392;28;20211;-67
2022/01/24 08:23:27;;;;;;;19.40;16.70;;;;;;;2.17;81.70;98109.09;5058772;28;20206;-66
2022/01/24 08:25:55;;;;;;;21.83;17.87;;;;;;;2.14;82.42;98113.56;5058609;28;20287;-66
2022/01/24 08:28:22;;;;;;;20.67;17.40;;;;;;;2.14;82.39;98113.56;5058702;28;20638;-67
2022/01/24 08:30:48;;;;;;;25.00;18.67;;;;;;;2.14;82.00;98116.19;5058835;28;20564;-66
2022/01/24 08:33:15;;;;;;;23.70;19.67;;;;;;;2.16;81.87;98111.78;5058489;28;20215;-66
2022/01/24 08:35:41;;;;;;;22.23;18.00;;;;;;;2.06;82.02;98118.22;5058935;28;20214;-66
2022/01/24 08:38:08;;;;;;;23.20;18.70;;;;;;;2.02;82.02;98114.84;5071396;28;20557;-66
2022/01/24 08:40:37;;;;;;;24.23;18.90;;;;;;;2.05;82.18;98119.13;5062268;28;20206;-66
2022/01/24 08:43:06;;;;;;;24.33;17.60;;;;;;;2.11;82.77;98117.16;5058905;28;20253;-67
2022/01/24 08:48:25;;;;;;;22.17;17.93;;;;;;;2.13;81.33;98119.69;5037992;28;20296;-67
2022/01/24 08:50:54;;;;;;;23.23;17.90;;;;;;;2.12;81.61;98128.44;5058549;28;20246;-67
2022/01/24 08:53:20;;;;;;;22.27;17.70;;;;;;;2.17;81.65;98121.28;5076170;28;20213;-65
2022/01/24 08:55:47;;;;;;;19.90;17.03;;;;;;;2.13;82.31;98130.13;5077717;28;20515;-66
2022/01/24 08:58:15;;;;;;;21.97;16.73;;;;;;;2.18;82.67;98129.06;5078218;28;20208;-66
2022/01/24 09:00:43;;;;;;;19.57;16.20;;;;;;;2.22;82.31;98124.59;5078709;28;20211;-67
2022/01/24 09:03:09;;;;;;;22.77;16.73;;;;;;;2.27;82.55;98128.72;5078175;28;20206;-67
2022/01/24 09:05:36;;;;;;;20.27;16.63;;;;;;;2.31;82.17;98134.69;5077768;28;20235;-66
2022/01/24 09:08:04;;;;;;;28.20;18.30;;;;;;;2.32;81.93;98131.16;5057311;28;20227;-67
2022/01/24 09:10:31;;;;;;;21.63;17.77;;;;;;;2.30;81.42;98130.38;5077911;28;20233;-67
2022/01/24 09:12:58;;;;;;;22.80;18.00;;;;;;;2.31;81.72;98130.31;5070265;28;20220;-68
2022/01/24 09:15:25;;;;;;;26.13;18.30;;;;;;;2.36;81.22;98127.56;5075445;28;20237;-68
2022/01/24 09:17:52;;;;;;;22.20;18.23;;;;;;;2.40;81.30;98131.75;5079533;28;20209;-67
2022/01/24 09:20:19;;;;;;;33.50;18.53;;;;;;;2.34;81.50;98126.72;5077776;28;20643;-67
2022/01/24 09:22:46;;;;;;;21.80;18.27;;;;;;;2.32;81.20;98125.94;5078318;28;20576;-66
2022/01/24 09:25:15;;;;;;;23.97;19.23;;;;;;;2.30;81.76;98133.81;5078000;28;20587;-67
2022/01/24 09:27:43;;;;;;;22.47;18.33;;;;;;;2.25;81.47;98141.00;5078074;28;20689;-66
2022/01/24 09:30:10;;;;;;;24.60;18.50;;;;;;;2.26;81.76;98140.09;5061822;28;20241;-66
2022/01/24 09:32:38;;;;;;;20.63;16.93;;;;;;;2.28;81.20;98134.78;5057200;28;20212;-66
2022/01/24 09:35:06;;;;;;;21.67;18.40;;;;;;;2.21;81.37;98139.41;5060286;28;20252;-66
2022/01/24 09:37:34;;;;;;;28.10;18.90;;;;;;;2.13;81.14;98140.56;5077264;28;20558;-66
2022/01/24 09:40:00;;;;;;;25.30;19.53;;;;;;;2.10;81.95;98149.38;5065750;28;20214;-67
2022/01/24 09:42:27;;;;;;;23.23;18.37;;;;;;;2.10;82.05;98151.97;5056610;28;20228;-66
2022/01/24 09:44:53;;;;;;;23.77;18.47;;;;;;;2.05;81.90;98153.06;5057533;28;20542;-66
2022/01/24 09:47:20;;;;;;;27.47;19.33;;;;;;;1.99;82.46;98154.97;5057073;28;20220;-67
2022/01/24 09:49:49;;;;;;;28.00;20.07;;;;;;;2.13;82.49;98151.84;5057307;28;20230;-66
2022/01/24 09:52:15;;;;;;;33.07;21.43;;;;;;;2.14;82.03;98148.34;5057107;28;20630;-66
2022/01/24 09:54:42;;;;;;;24.17;19.00;;;;;;;2.19;82.04;98150.81;5057192;28;20212;-65
2022/01/24 09:57:08;;;;;;;30.27;20.80;;;;;;;2.23;81.81;98149.78;5057514;28;20245;-66
2022/01/24 09:59:35;;;;;;;26.87;20.80;;;;;;;2.20;82.53;98149.88;5056738;28;20632;-67
2022/01/24 10:02:02;;;;;;;26.30;20.20;;;;;;;2.19;81.78;98153.41;5057324;28;20222;-65
2022/01/24 10:04:29;;;;;;;25.97;20.27;;;;;;;2.24;81.66;98151.47;5056728;28;20618;-66
2022/01/24 10:06:59;;;;;;;29.20;21.70;;;;;;;2.28;82.21;98151.31;5056576;28;20297;-66
2022/01/24 10:09:31;;;;;;;39.73;23.30;;;;;;;2.32;81.80;98144.22;5056893;28;20242;-66
2022/01/24 10:12:11;;;;;;;25.93;19.00;;;;;;;2.32;81.51;98141.63;5069629;28;20209;-65
2022/01/24 10:17:23;;;;;;;26.27;20.33;;;;;;;2.40;80.85;98145.66;5076721;28;20227;-66
2022/01/24 10:19:50;;;;;;;27.87;20.30;;;;;;;2.44;81.16;98146.41;5076504;28;20209;-65
2022/01/24 10:22:23;;;;;;;25.73;19.40;;;;;;;2.35;80.88;98137.13;5076538;28;20222;-65
2022/01/24 10:24:53;;;;;;;25.60;19.80;;;;;;;2.31;80.85;98138.16;5076554;28;20210;-66
2022/01/24 10:27:24;;;;;;;25.63;20.00;;;;;;;2.40;81.69;98142.19;5076684;28;20205;-65
2022/01/24 10:29:54;;;;;;;26.30;20.57;;;;;;;2.47;81.43;98146.28;5076276;28;20279;-66
2022/01/24 10:32:39;;;;;;;32.23;20.63;;;;;;;2.54;80.88;98136.44;5076308;28;20209;-66
2022/01/24 10:35:24;;;;;;;24.03;19.50;;;;;;;2.42;80.28;98132.53;5062838;28;20214;-65
2022/01/24 10:37:55;;;;;;;27.10;21.17;;;;;;;2.42;80.61;98148.19;5056492;28;20595;-67
2022/01/24 10:40:34;;;;;;;28.00;20.97;;;;;;;2.46;80.55;98139.34;5055984;28;20217;-67
2022/01/24 10:43:18;;;;;;;27.63;21.33;;;;;;;2.40;80.20;98139.59;5055445;28;20340;-67
2022/01/24 10:45:45;;;;;;;30.50;20.13;;;;;;;2.52;81.01;98136.50;5056495;28;20249;-66
2022/01/24 10:48:12;;;;;;;27.53;20.80;;;;;;;2.55;80.94;98136.38;5056328;28;20230;-67
2022/01/24 10:50:38;;;;;;;26.53;20.00;;;;;;;2.55;79.85;98133.75;5056426;28;20230;-67
2022/01/24 10:53:12;;;;;;;27.47;21.50;;;;;;;2.59;80.23;98135.34;5056506;28;20268;-67
2022/01/24 10:55:41;;;;;;;25.80;20.67;;;;;;;2.61;79.96;98128.34;5043726;22;20326;-66
2022/01/24 10:58:13;;;;;;;25.10;21.13;;;;;;;2.55;79.77;98125.94;5016482;28;20231;-66
2022/01/24 11:00:41;;;;;;;25.50;20.27;;;;;;;2.49;79.68;98131.41;5019273;28;20234;-67
2022/01/24 11:03:09;;;;;;;27.57;20.53;;;;;;;2.60;80.34;98129.22;5037741;28;20198;-67
2022/01/24 11:05:37;;;;;;;25.60;20.40;;;;;;;2.63;79.64;98121.28;5035073;28;20214;-67
2022/01/24 11:08:06;;;;;;;26.43;19.90;;;;;;;2.62;79.49;98132.66;5010465;28;20224;-76
2022/01/24 11:10:35;;;;;;;24.67;19.37;;;;;;;2.58;79.83;98131.06;5020837;28;20241;-73
2022/01/24 11:13:04;;;;;;;24.60;20.00;;;;;;;2.58;79.68;98133.69;5015953;28;20215;-73
2022/01/24 11:15:31;;;;;;;26.27;18.93;;;;;;;2.63;79.78;98131.72;5011861;28;20242;-74
2022/01/24 11:17:59;;;;;;;28.60;20.47;;;;;;;2.52;78.97;98128.66;5005219;28;20217;-69
2022/01/24 11:20:30;;;;;;;26.97;20.33;;;;;;;2.54;80.02;98124.25;5015465;28;20532;-71
2022/01/24 11:23:00;;;;;;;27.10;20.00;;;;;;;2.42;80.37;98124.69;5015251;28;20314;-72
2022/01/24 11:25:28;;;;;;;23.93;19.50;;;;;;;2.57;79.67;98126.75;5015877;28;20275;-72
2022/01/24 11:27:56;;;;;;;24.33;19.53;;;;;;;2.61;79.77;98123.13;5015262;28;20539;-66
2022/01/24 11:30:24;;;;;;;25.50;21.13;;;;;;;2.68;79.38;98121.97;5014678;28;20231;-65
2022/01/24 11:32:53;;;;;;;28.47;20.23;;;;;;;2.74;79.75;98110.41;5015682;28;20222;-68
2022/01/24 11:35:31;;;;;;;26.97;20.33;;;;;;;2.75;79.20;98115.59;5015624;28;20636;-68
2022/01/24 11:37:58;;;;;;;26.40;19.60;;;;;;;2.60;78.80;98105.72;5015639;28;20299;-75
2022/01/24 11:40:25;;;;;;;27.53;20.47;;;;;;;2.56;79.43;98109.38;5015789;28;20230;-74
2022/01/24 11:42:52;;;;;;;27.03;19.97;;;;;;;2.56;79.13;98104.13;5015579;28;20218;-75
2022/01/24 11:45:42;;;;;;;27.20;20.40;;;;;;;2.66;78.86;98105.50;5016655;28;20212;-78
2022/01/24 11:48:14;;;;;;;25.87;20.67;;;;;;;2.52;79.00;98092.09;5018900;28;20211;-77
2022/01/24 11:50:41;;;;;;;24.33;20.30;;;;;;;2.59;79.16;98090.97;5024697;28;20540;-75
2022/01/24 11:53:21;;;;;;;25.60;19.10;;;;;;;2.72;79.06;98091.34;5022075;28;20212;-78
2022/01/24 11:55:47;;;;;;;27.60;20.27;;;;;;;2.70;78.70;98096.63;5021163;28;20249;-76
2022/01/24 11:58:23;;;;;;;25.93;20.10;;;;;;;2.77;78.89;98085.03;5022555;28;20215;-75
2022/01/24 12:00:54;;;;;;;25.23;19.10;;;;;;;2.86;78.78;98082.06;5019649;28;20206;-74
2022/01/24 12:03:23;;;;;;;22.93;19.00;;;;;;;2.77;78.47;98087.63;5020638;28;20238;-74
2022/01/24 12:05:53;;;;;;;22.67;18.70;;;;;;;2.72;78.02;98084.38;5013951;28;20217;-72
2022/01/24 12:08:29;;;;;;;25.40;18.80;;;;;;;2.78;78.29;98080.66;5036704;28;20212;-66
2022/01/24 12:10:58;;;;;;;26.57;20.97;;;;;;;2.81;78.19;98085.75;5036079;28;20196;-73
2022/01/24 12:13:28;;;;;;;29.93;20.70;;;;;;;2.81;78.77;98078.78;5035498;28;20208;-75
2022/01/24 12:16:06;;;;;;;36.33;21.60;;;;;;;2.88;78.24;98084.59;5016544;28;20216;-74
2022/01/24 12:18:51;;;;;;;25.43;19.00;;;;;;;2.89;78.16;98081.09;5015813;28;20207;-74
2022/01/24 12:21:22;;;;;;;26.40;18.93;;;;;;;2.83;78.29;98078.72;5016676;28;20206;-74
2022/01/24 12:23:49;;;;;;;24.37;19.23;;;;;;;2.83;77.49;98082.19;5016309;28;20216;-74
2022/01/24 12:26:25;;;;;;;25.87;18.97;;;;;;;2.76;77.47;98070.28;5016423;28;20640;-73
2022/01/24 12:28:56;;;;;;;22.40;18.97;;;;;;;2.78;77.68;98065.00;5015855;28;20635;-68
2022/01/24 12:31:28;;;;;;;28.30;18.60;;;;;;;2.77;77.70;98061.53;5019276;28;20231;-67
2022/01/24 12:34:14;;;;;;;37.93;19.83;;;;;;;2.80;76.88;98064.00;5018714;28;20262;-67
2022/01/24 12:37:13;;;;;;;34.47;19.00;;;;;;;2.96;77.28;98059.88;5019429;28;20208;-67
2022/01/24 12:39:53;;;;;;;23.63;17.00;;;;;;;3.11;77.00;98054.94;4999123;28;20218;-66
2022/01/24 12:42:48;;;;;;;28.97;19.33;;;;;;;3.01;76.42;98042.25;5018006;28;20215;-68
2022/01/24 12:48:11;;;;;;;29.53;19.57;;;;;;;3.17;76.34;98045.09;5018648;28;20215;-68